Occitan Barsac — C6AR2 — position and weather

sailwx.info

Track history (hours):
 
Tides and Currents Weather Stations Pressure Air Temp Water Temp Dewpoint Dewpoint Depression Visibility Wind Speed Wind Dir Waves Ship Positions

Occitan Barsac

Last reported at 2018-Jun-17 07:46 UTC. Time now 2018-Jun-24 10:56 UTC.
Position N 38°60' E 121°41'.

Length 165 m; draft 6.1 m.

Type: Cargo ship. MMSI: 311000126.

Date/timePositionNaut miles runAvg speedWind from/ knotsBaromVisibWave heightAir tempDewpointWater temp
2018-Jun-17 07:46N 38°60' E 121°41'2 5.7
2018-Jun-17 07:24N 38°58' E 121°40'8 7.1
2018-Jun-17 06:13N 38°52' E 121°47'2 8.6
2018-Jun-17 06:00N 38°50' E 121°47'4 8.7
2018-Jun-17 05:30N 38°46' E 121°47'3 5.6
2018-Jun-17 05:00N 38°43' E 121°45'3 5.6
2018-Jun-17 04:30N 38°41' E 121°44'510.7
2018-Jun-17 04:00N 38°35' E 121°43'810.3
2018-Jun-17 03:14N 38°30' E 121°35'6912.9
2018-Jun-16 21:53N 38°48' E 120°09'  
Track history (hours):
 
Tides and Currents Weather Stations Pressure Air Temp Water Temp Dewpoint Dewpoint Depression Visibility Wind Speed Wind Dir Waves Ship Positions

Occitan Barsac

Last reported at 2018-Jun-17 07:46 UTC. Time now 2018-Jun-24 10:56 UTC.
Position N 38°60' E 121°41'.

Length 165 m; draft 6.1 m.

Type: Cargo ship. MMSI: 311000126.

Date/timePositionNaut miles runAvg speedWind from/ knotsBaromVisibWave heightAir tempDewpointWater temp
2018-Jun-17 07:46N 38°60' E 121°41'2 5.7
2018-Jun-17 07:24N 38°58' E 121°40'8 7.1
2018-Jun-17 06:13N 38°52' E 121°47'2 8.6
2018-Jun-17 06:00N 38°50' E 121°47'4 8.7
2018-Jun-17 05:30N 38°46' E 121°47'3 5.6
2018-Jun-17 05:00N 38°43' E 121°45'3 5.6
2018-Jun-17 04:30N 38°41' E 121°44'510.7
2018-Jun-17 04:00N 38°35' E 121°43'810.3
2018-Jun-17 03:14N 38°30' E 121°35'6912.9
2018-Jun-16 21:53N 38°48' E 120°09'  

Dump ship's entire track history